Kinston, NC

7:09 AM EDT on March 28, 2015 (GMT -0400)
Westbrooke II | | Change Station
CLOSE
Current Station
Personal Weather Station
Location: Kinston, NC
Elevation: 43 ft
Nearby Weather Stations
Active Advisory: Freeze Warning

Elev 43 ft 35.30 °N, 77.60 °W | Updated 13 seconds ago

Rain
Rain
37.9 °F
Feels Like 38 °F
N
2.0
Wind Variable Wind from NNE
Gusts 5.0 mph

Today
High -- | Low -- °F
--% Chance of Precip.
Yesterday
High -- | Low -- °F
Precip. -- in
7:03 AM 7:28 PM
First Quarter, 61% visible
Pressure 29.95 in
Visibility 4.0 miles
Clouds Overcast 1200 ft
Windchill 38 °F
Dew Point 36 °F
Humidity 94%
Rainfall 0.05 in
Snow Depth Not available.
UV 0 out of 12
Pollen 4.50 out of 12
Air Quality Not available.
Flu Activity Not available.
METAR KISO 281056Z 34008KT 4SM -RA OVC012 03/02 A2995 RMK AO2

More Conditions Fewer Conditions

Pressure 29.95 in
Visibility 4.0 miles
Clouds Overcast 1200 ft
Windchill 38 °F
Dew Point 36 °F
Humidity 94%
Rainfall 0.05 in
Snow Depth Not available.
UV 0 out of 12
Pollen 4.50 out of 12
Air Quality Not available.
Flu Activity Not available.
METAR KISO 281056Z 34008KT 4SM -RA OVC012 03/02 A2995 RMK AO2

More Conditions Fewer Conditions

10-Day Weather Forecast

Almanac

Astronomy

Mar. 28, 2015 Rise Set
Actual Time
Civil Twilight
Nautical Twilight
Astronomical Twilight
Moon
Length of Visible Light
Length of Day
Tomorrow will be .
, % of the Moon is Illuminated

Today's Extremes

State Highs State Lows

Community

WunderPhotos

Upload Photos

1,808,955 photos uploaded!

WunderBlogs® & News

Nearby

Air Quality

  Air Quality AQ Index Pollutant
Not available.

Snow Depth

Station Depth Elevation

Earthquake Activity

City Distance Mag. Time & Date
Minimum magnitude displayed is 2.5.

Coastal Water Temperatures

Place Temperature

Stations

Nearby Weather Stations

Station Location Temp. Windchill Dew Point Humidity Wind Precip. Elev Updated Type
                   
Freeze Warning
Statement as of 3:58 AM EDT on March 28, 2015

... Freeze warning in effect from 1 am to 8 am EDT Sunday...

The National Weather Service in Newport/Morehead City has issued
a freeze warning... which is in effect from 1 am to 8 am EDT
Sunday. The freeze watch is no longer in effect.

* Temperatures... in the lower 30s.

* Timing... Saturday night into early Sunday morning.

* Impacts... cold temperatures will damage or kill sensitive
plants.

Precautionary/preparedness actions...

A freeze warning means sub-freezing temperatures are imminent or
highly likely. These conditions will kill crops and other
sensitive vegetation.